createdAt,value
2023-06-22T00:01:30.788Z,9.63
2023-06-22T00:03:58.447Z,10.00
2023-06-22T00:06:26.252Z,10.23
2023-06-22T00:08:53.868Z,10.18
2023-06-22T00:11:21.585Z,8.65
2023-06-22T00:13:52.135Z,9.13
2023-06-22T00:16:19.848Z,10.20
2023-06-22T00:18:48.401Z,8.95
2023-06-22T00:21:16.241Z,8.70
2023-06-22T00:23:44.402Z,8.23
2023-06-22T00:26:12.480Z,10.10
2023-06-22T00:28:40.073Z,10.40
2023-06-22T00:31:09.116Z,8.77
2023-06-22T00:33:36.838Z,10.85
2023-06-22T00:36:05.104Z,10.68
2023-06-22T00:38:32.884Z,9.27
2023-06-22T00:41:00.486Z,11.80
2023-06-22T00:43:28.081Z,11.15
2023-06-22T00:45:57.723Z,10.63
2023-06-22T00:48:26.857Z,10.20
2023-06-22T00:50:56.727Z,9.45
2023-06-22T00:53:24.299Z,9.20
2023-06-22T00:55:52.781Z,10.60
2023-06-22T00:58:22.982Z,11.18
2023-06-22T01:00:50.918Z,12.40
2023-06-22T01:03:18.849Z,8.90
2023-06-22T01:05:48.681Z,10.47
2023-06-22T01:08:21.275Z,11.80
2023-06-22T01:10:54.131Z,9.98
2023-06-22T01:13:27.919Z,8.65
2023-06-22T01:15:58.361Z,9.48
2023-06-22T01:18:28.330Z,10.97
2023-06-22T01:20:58.630Z,13.02
2023-06-22T01:23:29.904Z,11.45
2023-06-22T01:26:01.747Z,8.82
2023-06-22T01:28:43.589Z,9.95
2023-06-22T01:31:12.715Z,10.13
2023-06-22T01:33:43.158Z,10.27
2023-06-22T01:36:11.400Z,9.10
2023-06-22T01:38:39.346Z,11.68
2023-06-22T01:41:06.985Z,9.45
2023-06-22T01:43:35.044Z,9.00
2023-06-22T01:46:04.277Z,9.75
2023-06-22T01:48:32.552Z,10.32
2023-06-22T01:51:00.348Z,10.00
2023-06-22T01:53:27.992Z,11.45
2023-06-22T01:55:55.571Z,10.57
2023-06-22T01:58:24.071Z,9.60
2023-06-22T02:00:55.306Z,11.63
2023-06-22T02:03:25.590Z,10.60
2023-06-22T02:05:57.017Z,10.90
2023-06-22T02:08:25.951Z,9.57
2023-06-22T02:10:54.844Z,9.68
2023-06-22T02:13:22.932Z,10.68
2023-06-22T02:15:50.680Z,9.88
2023-06-22T02:18:18.287Z,8.73
2023-06-22T02:20:47.282Z,10.63
2023-06-22T02:23:14.883Z,10.23
2023-06-22T02:25:45.250Z,12.10
2023-06-22T02:28:12.891Z,10.70
2023-06-22T02:30:40.612Z,10.77
2023-06-22T02:33:08.249Z,11.37
2023-06-22T02:35:36.834Z,12.55
2023-06-22T02:38:06.649Z,14.88
2023-06-22T02:40:34.325Z,12.90
2023-06-22T02:43:04.049Z,12.68
2023-06-22T02:45:31.917Z,12.87
2023-06-22T02:47:59.598Z,12.70
2023-06-22T02:50:27.573Z,11.77
2023-06-22T02:52:55.520Z,12.13
2023-06-22T02:55:24.999Z,11.05
2023-06-22T02:57:53.875Z,12.83
2023-06-22T03:00:22.822Z,12.40
2023-06-22T03:02:50.846Z,11.40
2023-06-22T03:05:19.460Z,10.85
2023-06-22T03:07:47.506Z,11.82
2023-06-22T03:10:15.674Z,12.20
2023-06-22T03:12:45.003Z,15.70
2023-06-22T03:15:13.369Z,13.20
2023-06-22T03:17:42.060Z,13.82
2023-06-22T03:20:12.105Z,12.73
2023-06-22T03:22:39.811Z,13.87
2023-06-22T03:25:11.478Z,12.98
2023-06-22T03:27:39.270Z,13.90
2023-06-22T03:30:09.465Z,13.38
2023-06-22T03:32:37.391Z,14.38
2023-06-22T03:35:05.210Z,12.97
2023-06-22T03:37:32.821Z,15.02
2023-06-22T03:40:00.409Z,14.25
2023-06-22T03:42:28.434Z,14.93
2023-06-22T03:44:56.021Z,16.58
2023-06-22T03:47:25.055Z,14.70
2023-06-22T03:49:56.356Z,14.82
2023-06-22T03:52:24.132Z,15.98
2023-06-22T03:54:51.961Z,16.25
2023-06-22T03:57:19.606Z,16.70
2023-06-22T03:59:47.209Z,15.87
2023-06-22T04:02:14.867Z,14.40
2023-06-22T04:04:44.016Z,16.77
2023-06-22T04:07:11.733Z,15.40
2023-06-22T04:09:39.337Z,15.23
2023-06-22T04:12:07.442Z,15.60
2023-06-22T04:14:35.049Z,14.88
2023-06-22T04:17:03.559Z,14.40
2023-06-22T04:19:31.137Z,13.45
2023-06-22T04:22:00.167Z,13.43
2023-06-22T04:24:27.823Z,14.17
2023-06-22T04:26:56.016Z,15.68
2023-06-22T04:29:31.200Z,11.45
2023-06-22T04:31:59.792Z,13.70
2023-06-22T04:34:28.326Z,13.00
2023-06-22T04:36:55.999Z,15.87
2023-06-22T04:39:25.298Z,11.60
2023-06-22T04:41:53.142Z,13.15
2023-06-22T04:44:25.115Z,13.18
2023-06-22T04:46:55.008Z,11.27
2023-06-22T04:49:23.066Z,10.80
2023-06-22T04:51:52.789Z,10.10
2023-06-22T04:54:20.483Z,11.50
2023-06-22T04:56:57.374Z,12.63
2023-06-22T04:59:29.789Z,10.27
2023-06-22T05:01:57.491Z,10.43
2023-06-22T05:04:25.588Z,9.20
2023-06-22T05:06:53.700Z,10.18
2023-06-22T05:09:21.513Z,9.40
2023-06-22T05:11:50.480Z,9.32
2023-06-22T05:14:18.099Z,9.47
2023-06-22T05:16:45.994Z,9.90
2023-06-22T05:19:13.906Z,10.25
2023-06-22T05:21:41.508Z,9.00
2023-06-22T05:24:09.388Z,11.80
2023-06-22T05:34:54.424Z,8.95
2023-06-22T05:37:22.587Z,8.73
2023-06-22T05:39:50.161Z,9.93
2023-06-22T05:42:17.748Z,9.30
2023-06-22T05:44:47.821Z,9.27
2023-06-22T05:47:15.459Z,9.60
2023-06-22T05:49:43.061Z,8.07
2023-06-22T05:52:10.683Z,7.67
2023-06-22T05:54:40.099Z,7.07
2023-06-22T05:57:07.754Z,7.50
2023-06-22T05:59:35.349Z,10.02
2023-06-22T06:02:04.490Z,8.40
2023-06-22T06:04:32.158Z,7.27
2023-06-22T06:06:59.763Z,6.57
2023-06-22T06:09:27.323Z,7.45
2023-06-22T06:11:54.932Z,6.93
2023-06-22T06:14:22.537Z,6.75
2023-06-22T06:16:50.411Z,6.87
2023-06-22T06:19:19.373Z,7.07
2023-06-22T06:21:47.146Z,7.38
2023-06-22T06:24:14.935Z,7.47
2023-06-22T06:26:43.687Z,7.93
2023-06-22T06:29:11.606Z,7.60
2023-06-22T06:31:39.244Z,6.30
2023-06-22T06:34:06.910Z,6.40
2023-06-22T06:36:35.854Z,6.35
2023-06-22T06:39:04.439Z,7.18
2023-06-22T06:41:32.038Z,6.80
2023-06-22T06:43:59.690Z,6.05
2023-06-22T06:46:27.318Z,7.33
2023-06-22T06:48:54.922Z,7.17
2023-06-22T06:51:22.548Z,11.95
2023-06-22T06:53:51.647Z,6.03
2023-06-22T06:56:19.346Z,5.63
2023-06-22T06:58:46.967Z,5.47
2023-06-22T07:01:14.571Z,5.30
2023-06-22T07:03:42.259Z,6.47
2023-06-22T07:06:10.414Z,4.68
2023-06-22T07:08:38.398Z,5.30
2023-06-22T07:11:07.434Z,4.60
2023-06-22T07:13:35.022Z,6.80
2023-06-22T07:16:02.637Z,5.60
2023-06-22T07:18:30.313Z,4.93
2023-06-22T07:20:57.954Z,5.03
2023-06-22T07:23:25.544Z,4.80
2023-06-22T07:25:53.112Z,4.60
2023-06-22T07:28:22.099Z,4.43
2023-06-22T07:30:49.776Z,4.70
2023-06-22T07:33:18.452Z,4.90
2023-06-22T07:35:46.377Z,4.70
2023-06-22T07:38:14.004Z,4.47
2023-06-22T07:40:42.851Z,6.65
2023-06-22T07:43:10.439Z,4.50
2023-06-22T07:45:41.579Z,4.70
2023-06-22T07:48:09.210Z,4.50
2023-06-22T07:50:36.915Z,4.55
2023-06-22T07:53:04.511Z,5.30
2023-06-22T07:55:32.228Z,5.00
2023-06-22T07:57:59.968Z,5.00
2023-06-22T08:00:27.663Z,5.23
2023-06-22T08:02:57.450Z,5.40
2023-06-22T08:05:25.187Z,5.50
2023-06-22T08:07:52.963Z,5.32
2023-06-22T08:10:20.993Z,5.85
2023-06-22T08:12:48.590Z,5.53
2023-06-22T08:15:16.239Z,6.05
2023-06-22T08:17:43.873Z,5.20
2023-06-22T08:20:13.882Z,5.10
2023-06-22T08:22:42.103Z,5.00
2023-06-22T08:25:10.271Z,5.07
2023-06-22T08:27:38.059Z,5.90
2023-06-22T08:30:06.206Z,4.45
2023-06-22T08:32:34.612Z,4.70
2023-06-22T08:35:02.592Z,5.40
2023-06-22T08:37:32.695Z,5.47
2023-06-22T08:40:01.095Z,4.72
2023-06-22T08:42:28.889Z,5.25
2023-06-22T08:44:56.487Z,5.77
2023-06-22T08:47:24.294Z,4.93
2023-06-22T08:49:52.182Z,5.22
2023-06-22T08:52:20.906Z,6.30
2023-06-22T08:54:49.940Z,5.32
2023-06-22T08:57:17.557Z,4.63
2023-06-22T08:59:45.205Z,4.40
2023-06-22T09:02:12.846Z,5.03
2023-06-22T09:04:40.785Z,6.80
2023-06-22T09:07:08.787Z,5.10
2023-06-22T09:09:36.401Z,4.30
2023-06-22T09:12:05.678Z,5.65
2023-06-22T09:14:33.578Z,4.03
2023-06-22T09:17:01.304Z,4.90
2023-06-22T09:19:29.062Z,4.43
2023-06-22T09:21:56.784Z,5.15
2023-06-22T09:24:24.503Z,4.55
2023-06-22T09:26:52.631Z,5.40
2023-06-22T09:29:21.569Z,5.45
2023-06-22T09:31:49.225Z,4.80
2023-06-22T09:34:16.845Z,5.20
2023-06-22T09:36:44.455Z,4.75
2023-06-22T09:39:12.079Z,4.93
2023-06-22T09:41:39.677Z,4.65
2023-06-22T09:44:07.300Z,5.93
2023-06-22T09:46:36.260Z,4.03
2023-06-22T09:49:03.859Z,5.00
2023-06-22T09:51:31.457Z,4.60
2023-06-22T09:53:59.327Z,5.53
2023-06-22T09:56:29.912Z,5.13
2023-06-22T09:59:02.999Z,5.07
2023-06-22T10:01:42.835Z,4.75
2023-06-22T10:04:10.640Z,4.45
2023-06-22T10:06:41.813Z,4.55
2023-06-22T10:09:09.861Z,4.97
2023-06-22T10:11:38.159Z,4.88
2023-06-22T10:14:06.257Z,4.22
2023-06-22T10:16:33.995Z,4.60
2023-06-22T10:19:02.995Z,5.15
2023-06-22T10:21:30.657Z,4.20
2023-06-22T10:23:58.246Z,4.50
2023-06-22T10:26:25.912Z,4.93
2023-06-22T10:29:07.145Z,4.53
2023-06-22T10:31:41.141Z,4.25
2023-06-22T10:34:10.126Z,4.97
2023-06-22T10:36:37.755Z,3.90
2023-06-22T10:39:05.441Z,3.85
2023-06-22T10:41:33.002Z,4.47
2023-06-22T10:44:00.620Z,5.17
2023-06-22T10:46:28.912Z,4.50
2023-06-22T10:48:58.220Z,4.15
2023-06-22T10:51:29.262Z,4.00
2023-06-22T10:53:56.913Z,4.45
2023-06-22T10:56:24.510Z,4.30
2023-06-22T10:58:52.094Z,4.18
2023-06-22T11:01:34.351Z,5.30
2023-06-22T11:04:05.125Z,4.40
2023-06-22T11:06:34.562Z,5.15
2023-06-22T11:09:12.316Z,4.80
2023-06-22T11:11:49.884Z,4.53
2023-06-22T11:14:17.507Z,4.68
2023-06-22T11:16:45.092Z,4.00
2023-06-22T11:19:12.673Z,4.32
2023-06-22T11:21:41.660Z,4.57
2023-06-22T11:24:09.417Z,4.00
2023-06-22T11:26:37.973Z,4.43
2023-06-22T11:29:06.448Z,4.97
2023-06-22T11:31:34.342Z,4.27
2023-06-22T11:34:02.123Z,4.00
2023-06-22T11:36:30.164Z,4.20
2023-06-22T11:38:59.174Z,5.07
2023-06-22T11:41:26.784Z,4.65
2023-06-22T11:43:54.420Z,4.45
2023-06-22T11:46:22.080Z,4.05
2023-06-22T11:48:55.333Z,8.73
2023-06-22T11:51:23.096Z,4.10
2023-06-22T11:53:50.744Z,4.20
2023-06-22T11:56:19.734Z,4.43
2023-06-22T11:58:47.358Z,4.10
2023-06-22T12:01:16.317Z,4.35
2023-06-22T12:03:44.943Z,3.95
2023-06-22T12:06:12.728Z,4.27
2023-06-22T12:08:41.352Z,4.30
2023-06-22T12:11:09.164Z,4.72
2023-06-22T12:13:38.113Z,4.45
2023-06-22T12:16:05.979Z,3.92
2023-06-22T12:18:34.802Z,4.03
2023-06-22T12:21:02.547Z,5.83
2023-06-22T12:23:30.115Z,4.67
2023-06-22T12:25:57.670Z,4.45
2023-06-22T12:28:25.289Z,5.28
2023-06-22T12:30:54.337Z,4.70
2023-06-22T12:33:21.982Z,4.47
2023-06-22T12:35:50.300Z,5.03
2023-06-22T12:38:17.947Z,4.40
2023-06-22T12:40:45.577Z,4.10
2023-06-22T12:43:13.177Z,4.15
2023-06-22T12:45:41.656Z,4.45
2023-06-22T12:48:10.701Z,3.80
2023-06-22T12:50:38.297Z,4.78
2023-06-22T12:53:07.290Z,4.10
2023-06-22T12:55:34.885Z,5.35
2023-06-22T12:58:02.508Z,4.18
2023-06-22T13:00:30.262Z,4.07
2023-06-22T13:02:58.221Z,4.75
2023-06-22T13:05:27.972Z,4.22
2023-06-22T13:07:55.949Z,4.50
2023-06-22T13:10:23.710Z,5.30
2023-06-22T13:12:51.750Z,5.40
2023-06-22T13:15:19.352Z,3.90
2023-06-22T13:17:47.020Z,5.40
2023-06-22T13:20:14.660Z,4.60
2023-06-22T13:22:45.141Z,3.85
2023-06-22T13:25:14.194Z,4.17
2023-06-22T13:27:42.052Z,5.25
2023-06-22T13:52:13.919Z,4.57
2023-06-22T13:54:42.948Z,3.75
2023-06-22T13:57:10.544Z,4.90
2023-06-22T13:59:38.261Z,4.30
2023-06-22T14:02:06.276Z,4.18
2023-06-22T14:04:33.984Z,4.87
2023-06-22T14:07:01.625Z,4.47
2023-06-22T14:09:29.468Z,5.50
2023-06-22T14:11:58.486Z,4.10
2023-06-22T14:14:26.138Z,4.35
2023-06-22T14:16:53.730Z,4.37
2023-06-22T14:19:21.386Z,5.18
2023-06-22T14:21:49.004Z,3.90
2023-06-22T14:24:16.578Z,4.82
2023-06-22T14:26:44.227Z,3.85
2023-06-22T14:29:13.199Z,4.20
2023-06-22T14:31:40.814Z,4.10
2023-06-22T14:34:08.454Z,4.03
2023-06-22T14:36:36.030Z,4.95
2023-06-22T14:39:03.662Z,4.63
2023-06-22T14:41:31.584Z,4.83
2023-06-22T14:43:59.401Z,4.15
2023-06-22T14:46:28.569Z,4.32
2023-06-22T14:48:56.383Z,4.40
2023-06-22T14:51:24.140Z,4.65
2023-06-22T14:53:51.762Z,5.03
2023-06-22T14:56:19.437Z,4.35
2023-06-22T14:58:47.748Z,4.47
2023-06-22T15:01:16.104Z,6.22
2023-06-22T15:03:45.291Z,4.20
2023-06-22T15:06:13.007Z,3.53
2023-06-22T15:08:40.798Z,6.07
2023-06-22T15:11:08.553Z,4.38
2023-06-22T15:13:36.309Z,4.05
2023-06-22T15:16:04.812Z,5.85
2023-06-22T15:18:34.739Z,4.90
2023-06-22T15:21:03.985Z,6.43
2023-06-22T15:23:31.697Z,4.22
2023-06-22T15:25:59.328Z,4.00
2023-06-22T15:28:27.059Z,4.38
2023-06-22T15:30:54.676Z,4.50
2023-06-22T15:33:22.257Z,4.93
2023-06-22T15:35:49.840Z,4.93
2023-06-22T15:38:18.959Z,4.45
2023-06-22T15:40:46.540Z,4.25
2023-06-22T15:43:15.201Z,5.87
2023-06-22T15:45:43.038Z,3.92
2023-06-22T15:48:10.722Z,4.43
2023-06-22T15:50:38.379Z,4.40
2023-06-22T15:53:06.017Z,4.50
2023-06-22T15:55:36.245Z,4.30
2023-06-22T15:58:03.884Z,4.82
2023-06-22T16:00:32.040Z,5.05
2023-06-22T16:03:00.392Z,5.30
2023-06-22T16:05:28.129Z,5.47
2023-06-22T16:07:58.692Z,4.37
2023-06-22T16:10:26.293Z,5.85
2023-06-22T16:12:55.348Z,4.82
2023-06-22T16:15:22.993Z,6.85
2023-06-22T16:17:50.642Z,4.93
2023-06-22T16:20:18.603Z,4.67
2023-06-22T16:22:47.253Z,4.50
2023-06-22T16:25:15.261Z,4.68
2023-06-22T16:27:42.964Z,5.00
2023-06-22T16:30:12.325Z,5.30
2023-06-22T16:32:39.989Z,4.60
2023-06-22T16:35:08.245Z,5.15
2023-06-22T16:37:35.866Z,4.78
2023-06-22T16:40:05.616Z,4.82
2023-06-22T16:42:33.198Z,4.93
2023-06-22T16:45:02.124Z,5.40
2023-06-22T16:47:31.435Z,5.28
2023-06-22T16:49:59.070Z,4.70
2023-06-22T16:52:26.646Z,5.38
2023-06-22T16:55:00.761Z,5.18
2023-06-22T16:57:29.616Z,4.30
2023-06-22T16:59:57.220Z,4.85
2023-06-22T17:02:26.010Z,4.57
2023-06-22T17:04:56.461Z,5.15
2023-06-22T17:07:24.719Z,4.28
2023-06-22T17:09:52.549Z,4.23
2023-06-22T17:12:20.504Z,4.60
2023-06-22T17:14:48.155Z,4.95
2023-06-22T17:17:19.657Z,4.93
2023-06-22T17:19:48.681Z,5.38
2023-06-22T17:22:17.948Z,5.27
2023-06-22T17:24:45.902Z,4.03
2023-06-22T17:27:13.516Z,5.05
2023-06-22T17:29:41.107Z,4.25
2023-06-22T17:32:08.849Z,4.55
2023-06-22T17:34:36.515Z,3.93
2023-06-22T17:37:04.204Z,4.60
2023-06-22T17:39:33.159Z,4.30
2023-06-22T17:42:00.808Z,6.15
2023-06-22T17:44:28.970Z,4.22
2023-06-22T17:46:57.298Z,4.50
2023-06-22T17:49:28.191Z,4.05
2023-06-22T17:51:56.414Z,4.95
2023-06-22T17:54:30.610Z,4.72
2023-06-22T17:57:17.578Z,5.63
2023-06-22T17:59:49.167Z,5.77
2023-06-22T18:02:17.936Z,5.30
2023-06-22T18:04:45.559Z,5.03
2023-06-22T18:07:13.191Z,4.82
2023-06-22T18:09:41.580Z,5.25
2023-06-22T18:12:11.390Z,5.73
2023-06-22T18:14:42.010Z,4.78
2023-06-22T18:17:10.531Z,6.25
2023-06-22T18:19:39.217Z,6.72
2023-06-22T18:22:07.365Z,8.57
2023-06-22T18:24:35.362Z,9.20
2023-06-22T18:27:03.836Z,7.85
2023-06-22T18:29:31.974Z,5.85
2023-06-22T18:32:01.031Z,5.97
2023-06-22T18:34:29.460Z,6.80
2023-06-22T18:36:58.167Z,4.60
2023-06-22T18:39:26.259Z,6.75
2023-06-22T18:41:55.312Z,5.13
2023-06-22T18:44:23.543Z,5.55
2023-06-22T18:46:52.988Z,5.00
2023-06-22T18:49:25.920Z,7.23
2023-06-22T18:51:57.046Z,5.55
2023-06-22T18:54:25.954Z,4.80
2023-06-22T18:56:53.871Z,4.60
2023-06-22T18:59:36.323Z,6.30
2023-06-22T19:02:04.012Z,4.47
2023-06-22T19:04:32.966Z,4.57
2023-06-22T19:07:01.614Z,5.03
2023-06-22T19:09:29.240Z,8.18
2023-06-22T19:12:11.693Z,4.63
2023-06-22T19:14:39.332Z,5.57
2023-06-22T19:17:06.987Z,4.72
2023-06-22T19:19:39.014Z,4.13
2023-06-22T19:22:07.194Z,5.30
2023-06-22T19:24:49.754Z,5.03
2023-06-22T19:27:17.636Z,5.30
2023-06-22T19:29:45.408Z,5.25
2023-06-22T19:32:13.007Z,5.40
2023-06-22T19:34:45.341Z,4.85
2023-06-22T19:37:15.638Z,5.40
2023-06-22T19:39:45.616Z,4.43
2023-06-22T19:42:14.975Z,5.22
2023-06-22T19:44:42.654Z,5.30
2023-06-22T19:47:10.434Z,4.53
2023-06-22T19:49:38.088Z,6.60
2023-06-22T19:52:10.357Z,4.53
2023-06-22T19:54:41.314Z,4.40
2023-06-22T19:57:10.297Z,4.68
2023-06-22T19:59:37.903Z,4.22
2023-06-22T20:02:09.011Z,4.93
2023-06-22T20:04:38.374Z,6.37
2023-06-22T20:07:07.101Z,4.50
2023-06-22T20:09:37.719Z,4.57
2023-06-22T20:12:07.488Z,6.07
2023-06-22T20:14:35.392Z,4.65
2023-06-22T20:17:03.683Z,4.43
2023-06-22T20:19:36.432Z,6.35
2023-06-22T20:22:06.126Z,5.05
2023-06-22T20:24:33.736Z,4.40
2023-06-22T20:27:02.686Z,5.30
2023-06-22T20:29:31.330Z,5.87
2023-06-22T20:32:06.052Z,8.27
2023-06-22T20:34:37.523Z,5.15
2023-06-22T20:37:05.492Z,6.68
2023-06-22T20:39:33.096Z,6.13
2023-06-22T20:42:04.022Z,6.00
2023-06-22T20:44:31.786Z,5.22
2023-06-22T20:46:59.359Z,5.90
2023-06-22T20:49:27.706Z,7.93
2023-06-22T20:51:55.493Z,5.68
2023-06-22T20:54:23.103Z,6.07
2023-06-22T20:56:50.706Z,6.43
2023-06-22T20:59:19.649Z,4.53
2023-06-22T21:01:48.071Z,5.55
2023-06-22T21:04:15.710Z,5.72
2023-06-22T21:06:43.300Z,5.57
2023-06-22T21:09:10.938Z,6.57
2023-06-22T21:11:38.529Z,6.85
2023-06-22T21:14:18.700Z,7.50
2023-06-22T21:16:49.369Z,5.72
2023-06-22T21:19:17.003Z,6.80
2023-06-22T21:21:44.681Z,6.88
2023-06-22T21:24:12.308Z,5.68
2023-06-22T21:26:40.054Z,7.68
2023-06-22T21:29:07.678Z,7.18
2023-06-22T21:31:35.315Z,6.53
2023-06-22T21:34:04.279Z,6.82
2023-06-22T21:36:31.898Z,5.95
2023-06-22T21:38:59.550Z,7.50
2023-06-22T21:41:27.199Z,7.40
2023-06-22T21:43:54.913Z,7.10
2023-06-22T21:46:22.567Z,6.95
2023-06-22T21:48:50.209Z,6.90
2023-06-22T21:51:19.180Z,6.70
2023-06-22T21:53:46.747Z,5.90
2023-06-22T21:56:14.528Z,6.00
2023-06-22T21:58:42.133Z,7.57
2023-06-22T22:01:09.797Z,5.78
2023-06-22T22:03:37.445Z,6.78
2023-06-22T22:06:05.259Z,5.93
2023-06-22T22:08:34.227Z,5.63
2023-06-22T22:11:03.773Z,7.82
2023-06-22T22:13:33.200Z,7.20
2023-06-22T22:16:00.830Z,8.00
2023-06-22T22:18:29.120Z,8.50
2023-06-22T22:20:56.743Z,6.33
2023-06-22T22:23:26.878Z,5.50
2023-06-22T22:25:56.230Z,5.85
2023-06-22T22:28:23.838Z,6.22
2023-06-22T22:30:51.971Z,6.00
2023-06-22T22:33:19.906Z,7.17
2023-06-22T22:35:47.622Z,5.93
2023-06-22T22:38:15.230Z,7.00
2023-06-22T22:40:42.843Z,7.30
2023-06-22T22:43:11.804Z,6.80
2023-06-22T22:45:39.388Z,7.37
2023-06-22T22:48:08.290Z,5.93
2023-06-22T22:50:35.899Z,6.50
2023-06-22T22:53:05.171Z,6.53
2023-06-22T22:55:33.139Z,6.32
2023-06-22T22:58:00.962Z,5.67
2023-06-22T23:00:29.915Z,5.85
2023-06-22T23:02:59.313Z,7.43
2023-06-22T23:05:27.055Z,5.80
2023-06-22T23:07:54.640Z,7.03
2023-06-22T23:10:22.246Z,6.37
2023-06-22T23:12:49.970Z,6.35
2023-06-22T23:15:17.573Z,7.43
2023-06-22T23:17:46.587Z,7.00
2023-06-22T23:20:18.052Z,6.82
2023-06-22T23:22:45.722Z,5.43
2023-06-22T23:25:13.473Z,6.50
2023-06-22T23:27:41.122Z,6.50
2023-06-22T23:30:10.539Z,8.50
2023-06-22T23:32:38.348Z,6.43
2023-06-22T23:35:11.101Z,5.47
2023-06-22T23:37:40.637Z,6.55
2023-06-22T23:40:13.013Z,6.68
2023-06-22T23:42:40.597Z,5.43
2023-06-22T23:45:10.400Z,6.72
2023-06-22T23:47:38.447Z,7.13
2023-06-22T23:50:06.745Z,6.35
2023-06-22T23:52:36.071Z,6.88
2023-06-22T23:55:03.818Z,6.38
2023-06-22T23:57:34.028Z,6.65
